Terminal Aerodrome Forecast
Issued by NWS Memphis, TN

Home | Current Version | Previous Version | Text Only | Print | Product List | Glossary On
Versions: 1 2 3 4 5 6 7 8 9 10 11 12 13 14 15 16 17
000
FTUS44 KMEG 291837 AAA
TAFJBR
TAF AMD
KJBR 291837Z 2919/3018 18016G24KT P6SM FEW025
     FM300100 23007KT P6SM VCSH SCT045
      TEMPO 3001/3003 6SM -SHRA BKN025 OVC045
     FM300300 33007KT P6SM SCT100
     FM300800 02005KT P6SM SKC=

USA.gov is the U.S. government's official web portal to all federal, state and local government web resources and services.